createdAt,value
2022-10-18T00:00:46.211Z,8.62
2022-10-18T00:03:12.535Z,8.55
2022-10-18T00:05:39.214Z,8.49
2022-10-18T00:08:05.652Z,8.42
2022-10-18T00:10:31.990Z,8.43
2022-10-18T00:12:58.762Z,8.44
2022-10-18T00:15:25.070Z,8.37
2022-10-18T00:17:51.487Z,8.32
2022-10-18T00:20:18.454Z,8.35
2022-10-18T00:22:44.782Z,8.39
2022-10-18T00:25:11.086Z,8.43
2022-10-18T00:27:38.015Z,8.46
2022-10-18T00:30:05.538Z,8.40
2022-10-18T00:32:36.497Z,8.29
2022-10-18T00:35:04.490Z,8.25
2022-10-18T00:37:31.159Z,8.32
2022-10-18T00:39:57.932Z,8.26
2022-10-18T00:42:30.642Z,8.20
2022-10-18T00:45:02.273Z,8.16
2022-10-18T00:47:29.369Z,8.17
2022-10-18T00:49:58.801Z,8.13
2022-10-18T00:52:35.560Z,8.12
2022-10-18T00:55:03.527Z,8.11
2022-10-18T00:57:30.140Z,8.18
2022-10-18T00:59:56.732Z,8.15
2022-10-18T01:02:25.080Z,8.17
2022-10-18T01:04:51.696Z,8.24
2022-10-18T01:07:40.205Z,8.28
2022-10-18T01:10:14.983Z,8.39
2022-10-18T01:12:41.767Z,8.42
2022-10-18T01:15:12.920Z,8.38
2022-10-18T01:18:06.725Z,8.34
2022-10-18T01:20:43.779Z,8.31
2022-10-18T01:23:30.748Z,8.25
2022-10-18T01:26:09.029Z,8.22
2022-10-18T01:28:54.431Z,8.21
2022-10-18T01:31:25.794Z,8.19
2022-10-18T01:33:59.955Z,8.17
2022-10-18T01:36:32.830Z,8.19
2022-10-18T01:39:03.451Z,8.13
2022-10-18T01:41:30.295Z,7.97
2022-10-18T01:44:00.969Z,7.91
2022-10-18T01:46:29.683Z,7.95
2022-10-18T01:48:57.532Z,7.95
2022-10-18T01:51:29.015Z,7.95
2022-10-18T01:53:56.696Z,7.95
2022-10-18T01:56:42.508Z,8.03
2022-10-18T01:59:28.104Z,8.12
2022-10-18T02:02:10.144Z,8.21
2022-10-18T02:04:51.651Z,8.21
2022-10-18T02:07:36.327Z,8.05
2022-10-18T02:12:49.631Z,8.09
2022-10-18T02:15:22.450Z,8.11
2022-10-18T02:17:48.841Z,8.16
2022-10-18T02:20:20.812Z,8.25
2022-10-18T02:22:50.586Z,8.33
2022-10-18T02:25:22.791Z,8.43
2022-10-18T02:27:49.515Z,8.63
2022-10-18T02:30:16.776Z,8.73
2022-10-18T02:33:02.584Z,8.82
2022-10-18T02:35:44.547Z,8.93
2022-10-18T02:38:14.532Z,8.97
2022-10-18T02:40:41.239Z,9.01
2022-10-18T02:43:07.916Z,9.00
2022-10-18T02:45:34.304Z,9.06
2022-10-18T02:48:00.818Z,9.14
2022-10-18T02:50:27.687Z,9.24
2022-10-18T02:52:54.605Z,9.30
2022-10-18T02:55:20.961Z,9.23
2022-10-18T02:57:47.777Z,9.33
2022-10-18T03:00:14.668Z,9.24
2022-10-18T03:02:40.993Z,9.13
2022-10-18T03:05:08.251Z,9.07
2022-10-18T03:07:34.852Z,9.22
2022-10-18T03:10:01.374Z,9.38
2022-10-18T03:12:28.106Z,9.46
2022-10-18T03:14:54.420Z,9.51
2022-10-18T03:17:20.987Z,9.51
2022-10-18T03:19:47.312Z,9.46
2022-10-18T03:22:13.651Z,9.58
2022-10-18T03:24:39.978Z,9.64
2022-10-18T03:27:06.367Z,9.92
2022-10-18T03:29:32.741Z,10.10
2022-10-18T03:31:59.396Z,10.16
2022-10-18T03:34:25.720Z,10.09
2022-10-18T03:36:52.499Z,10.06
2022-10-18T03:39:18.863Z,10.02
2022-10-18T03:41:45.250Z,9.81
2022-10-18T03:44:11.966Z,9.75
2022-10-18T03:46:38.275Z,9.92
2022-10-18T03:49:04.650Z,10.24
2022-10-18T03:51:31.507Z,10.45
2022-10-18T03:53:57.816Z,10.49
2022-10-18T03:56:24.157Z,10.25
2022-10-18T03:58:50.972Z,10.25
2022-10-18T04:01:17.341Z,10.50
2022-10-18T04:03:43.727Z,10.48
2022-10-18T04:06:10.607Z,10.47
2022-10-18T04:08:36.964Z,10.43
2022-10-18T04:11:12.412Z,10.46
2022-10-18T04:13:38.924Z,10.62
2022-10-18T04:16:05.370Z,10.50
2022-10-18T04:18:32.106Z,10.48
2022-10-18T04:20:58.795Z,10.46
2022-10-18T04:23:25.127Z,10.36
2022-10-18T04:25:51.997Z,10.43
2022-10-18T04:28:18.640Z,10.52
2022-10-18T04:30:50.124Z,10.50
2022-10-18T04:33:16.983Z,10.62
2022-10-18T04:35:43.304Z,10.64
2022-10-18T04:38:10.070Z,10.74
2022-10-18T04:40:37.959Z,10.96
2022-10-18T04:43:04.260Z,10.98
2022-10-18T04:45:30.699Z,10.87
2022-10-18T04:47:57.526Z,10.86
2022-10-18T04:50:23.871Z,10.86
2022-10-18T04:55:21.773Z,10.78
2022-10-18T04:57:48.183Z,10.96
2022-10-18T05:00:14.876Z,10.98
2022-10-18T05:02:41.717Z,11.00
2022-10-18T05:05:10.409Z,10.91
2022-10-18T05:07:39.666Z,10.76
2022-10-18T05:10:06.317Z,10.70
2022-10-18T05:12:32.916Z,10.87
2022-10-18T05:14:59.483Z,10.63
2022-10-18T05:17:26.324Z,10.53
2022-10-18T05:19:52.636Z,10.35
2022-10-18T05:22:18.970Z,10.41
2022-10-18T05:24:45.772Z,10.57
2022-10-18T05:27:12.155Z,10.61
2022-10-18T05:29:38.540Z,10.58
2022-10-18T05:32:05.388Z,10.53
2022-10-18T05:34:34.375Z,10.56
2022-10-18T05:37:00.836Z,10.66
2022-10-18T05:39:27.631Z,10.73
2022-10-18T05:41:54.003Z,10.67
2022-10-18T05:44:20.446Z,10.61
2022-10-18T05:46:47.017Z,10.68
2022-10-18T05:49:13.907Z,10.72
2022-10-18T05:51:40.327Z,10.66
2022-10-18T05:54:06.762Z,10.71
2022-10-18T05:56:33.180Z,10.88
2022-10-18T05:58:59.531Z,10.87
2022-10-18T06:01:26.303Z,10.98
2022-10-18T06:03:53.059Z,11.03
2022-10-18T06:06:19.377Z,11.12
2022-10-18T06:08:49.238Z,11.24
2022-10-18T06:11:19.032Z,11.07
2022-10-18T06:13:47.820Z,11.09
2022-10-18T06:16:17.037Z,11.04
2022-10-18T06:18:47.084Z,11.15
2022-10-18T06:21:13.398Z,11.29
2022-10-18T06:23:40.051Z,11.19
2022-10-18T06:26:09.646Z,11.29
2022-10-18T06:28:37.769Z,11.39
2022-10-18T06:31:05.257Z,11.51
2022-10-18T06:33:32.992Z,11.35
2022-10-18T06:36:05.517Z,11.33
2022-10-18T06:38:32.712Z,11.31
2022-10-18T06:40:59.562Z,11.43
2022-10-18T06:43:26.407Z,11.50
2022-10-18T06:45:54.800Z,11.50
2022-10-18T06:48:21.900Z,11.67
2022-10-18T06:50:57.642Z,11.84
2022-10-18T06:53:25.600Z,11.85
2022-10-18T06:55:52.207Z,11.94
2022-10-18T06:58:19.106Z,11.92
2022-10-18T07:00:46.826Z,12.02
2022-10-18T07:03:13.892Z,12.10
2022-10-18T07:05:40.331Z,11.92
2022-10-18T07:08:06.651Z,11.95
2022-10-18T07:10:33.571Z,12.23
2022-10-18T07:13:20.117Z,12.21
2022-10-18T07:15:46.644Z,12.03
2022-10-18T07:18:13.229Z,12.25
2022-10-18T07:20:39.701Z,12.29
2022-10-18T07:23:08.956Z,12.70
2022-10-18T07:25:35.828Z,14.01
2022-10-18T07:28:02.377Z,15.13
2022-10-18T07:30:29.354Z,15.50
2022-10-18T07:32:55.660Z,15.54
2022-10-18T07:35:21.968Z,15.41
2022-10-18T07:37:48.673Z,15.39
2022-10-18T07:40:15.135Z,15.75
2022-10-18T07:42:41.451Z,15.81
2022-10-18T07:45:08.579Z,15.71
2022-10-18T07:47:35.416Z,15.92
2022-10-18T07:50:02.257Z,15.90
2022-10-18T07:52:28.584Z,15.74
2022-10-18T07:54:54.906Z,15.96
2022-10-18T07:57:21.647Z,16.69
2022-10-18T07:59:48.511Z,16.82
2022-10-18T08:02:14.880Z,16.66
2022-10-18T08:04:41.534Z,17.36
2022-10-18T08:07:08.034Z,17.61
2022-10-18T08:09:34.348Z,17.09
2022-10-18T08:12:00.683Z,17.33
2022-10-18T08:14:27.407Z,16.40
2022-10-18T08:16:56.099Z,16.48
2022-10-18T08:19:22.474Z,16.88
2022-10-18T08:21:48.800Z,17.87
2022-10-18T08:24:15.802Z,16.90
2022-10-18T08:26:42.154Z,16.99
2022-10-18T08:29:22.553Z,17.02
2022-10-18T08:31:51.491Z,16.83
2022-10-18T08:34:19.780Z,16.95
2022-10-18T08:36:46.199Z,17.24
2022-10-18T08:39:12.947Z,17.22
2022-10-18T08:41:52.351Z,17.62
2022-10-18T08:44:27.202Z,17.81
2022-10-18T08:47:03.014Z,18.53
2022-10-18T08:49:44.168Z,18.03
2022-10-18T08:52:33.835Z,18.09
2022-10-18T08:55:28.111Z,17.73
2022-10-18T08:57:57.664Z,18.61
2022-10-18T09:00:28.871Z,17.70
2022-10-18T09:03:27.589Z,17.31
2022-10-18T09:06:09.462Z,17.87
2022-10-18T09:08:48.007Z,17.78
2022-10-18T09:11:42.319Z,17.86
2022-10-18T09:14:37.203Z,18.28
2022-10-18T09:17:28.152Z,18.50
2022-10-18T09:20:13.322Z,18.42
2022-10-18T09:22:54.160Z,18.86
2022-10-18T09:25:28.295Z,18.56
2022-10-18T09:27:56.179Z,19.15
2022-10-18T09:30:37.817Z,18.70
2022-10-18T09:33:13.440Z,18.54
2022-10-18T09:35:47.731Z,18.80
2022-10-18T09:38:19.299Z,18.50
2022-10-18T09:40:58.790Z,18.16
2022-10-18T09:43:49.586Z,18.64
2022-10-18T09:46:19.816Z,18.43
2022-10-18T09:48:54.849Z,18.24
2022-10-18T09:51:29.611Z,18.42
2022-10-18T09:54:02.387Z,17.59
2022-10-18T09:56:52.015Z,17.82
2022-10-18T09:59:42.951Z,18.25
2022-10-18T10:02:16.775Z,18.70
2022-10-18T10:04:44.109Z,18.89
2022-10-18T10:07:35.215Z,18.39
2022-10-18T10:10:13.947Z,18.75
2022-10-18T10:12:41.063Z,18.78
2022-10-18T10:15:31.195Z,18.88
2022-10-18T10:18:01.682Z,19.42
2022-10-18T10:20:35.839Z,19.49
2022-10-18T10:23:07.170Z,19.68
2022-10-18T10:25:38.273Z,19.37
2022-10-18T10:28:16.004Z,19.49
2022-10-18T10:30:42.971Z,19.45
2022-10-18T10:33:37.498Z,20.08
2022-10-18T10:36:19.283Z,20.16
2022-10-18T10:38:45.739Z,20.25
2022-10-18T10:41:22.425Z,20.10
2022-10-18T10:43:51.047Z,20.32
2022-10-18T10:46:20.801Z,21.26
2022-10-18T10:49:08.399Z,20.38
2022-10-18T10:51:40.913Z,21.29
2022-10-18T10:54:13.375Z,20.43
2022-10-18T10:57:03.975Z,20.66
2022-10-18T10:59:38.892Z,22.15
2022-10-18T11:02:15.183Z,22.06
2022-10-18T11:04:42.813Z,21.63
2022-10-18T11:07:15.676Z,20.75
2022-10-18T11:10:15.244Z,20.35
2022-10-18T11:12:55.689Z,20.39
2022-10-18T11:15:32.787Z,20.09
2022-10-18T11:18:28.992Z,20.22
2022-10-18T11:21:07.774Z,20.37
2022-10-18T11:23:37.009Z,20.81
2022-10-18T11:26:13.049Z,20.90
2022-10-18T11:29:06.181Z,20.95
2022-10-18T11:31:35.833Z,20.98
2022-10-18T11:34:39.831Z,20.56
2022-10-18T11:37:29.463Z,20.24
2022-10-18T11:40:17.387Z,20.36
2022-10-18T11:43:08.789Z,20.63
2022-10-18T11:45:44.405Z,21.19
2022-10-18T11:48:24.461Z,21.92
2022-10-18T11:51:14.927Z,22.00
2022-10-18T11:54:17.673Z,22.06
2022-10-18T11:57:21.712Z,21.90
2022-10-18T12:00:08.347Z,22.24
2022-10-18T12:02:56.323Z,22.12
2022-10-18T12:05:25.108Z,21.80
2022-10-18T12:07:58.653Z,21.81
2022-10-18T12:10:44.171Z,21.90
2022-10-18T12:13:25.501Z,22.42
2022-10-18T12:15:52.695Z,22.45
2022-10-18T12:18:23.951Z,22.10
2022-10-18T12:20:57.142Z,21.86
2022-10-18T12:23:26.229Z,21.55
2022-10-18T12:26:01.574Z,20.63
2022-10-18T12:28:48.919Z,20.38
2022-10-18T12:31:26.347Z,20.11
2022-10-18T12:34:00.316Z,20.20
2022-10-18T12:36:54.047Z,20.39
2022-10-18T12:39:37.583Z,19.99
2022-10-18T12:42:29.442Z,20.03
2022-10-18T12:45:07.175Z,20.26
2022-10-18T12:47:34.435Z,20.27
2022-10-18T12:50:05.074Z,20.39
2022-10-18T12:52:35.180Z,20.54
2022-10-18T12:55:06.905Z,20.70
2022-10-18T12:57:51.780Z,20.89
2022-10-18T13:00:38.314Z,20.81
2022-10-18T13:03:14.894Z,20.61
2022-10-18T13:05:55.646Z,20.73
2022-10-18T13:08:34.212Z,21.01
2022-10-18T13:11:09.725Z,21.21
2022-10-18T13:13:45.806Z,21.23
2022-10-18T13:16:24.850Z,21.37
2022-10-18T13:18:59.782Z,21.29
2022-10-18T13:21:45.921Z,21.31
2022-10-18T13:24:24.437Z,21.33
2022-10-18T13:27:24.317Z,21.21
2022-10-18T13:30:30.622Z,21.06
2022-10-18T13:33:22.173Z,20.89
2022-10-18T13:35:52.876Z,20.78
2022-10-18T13:38:37.358Z,20.97
2022-10-18T13:41:05.950Z,20.74
2022-10-18T13:43:54.081Z,20.27
2022-10-18T13:46:22.749Z,20.13
2022-10-18T13:48:54.708Z,20.17
2022-10-18T13:51:46.275Z,20.32
2022-10-18T13:54:50.438Z,20.30
2022-10-18T13:57:17.322Z,20.57
2022-10-18T13:59:53.595Z,20.71
2022-10-18T14:02:36.370Z,20.62
2022-10-18T14:05:25.165Z,20.42
2022-10-18T14:07:57.924Z,20.42
2022-10-18T14:10:50.270Z,20.24
2022-10-18T14:13:24.451Z,20.24
2022-10-18T14:15:55.180Z,20.26
2022-10-18T14:18:40.602Z,20.18
2022-10-18T14:21:21.874Z,20.03
2022-10-18T14:23:50.370Z,20.10
2022-10-18T14:26:19.883Z,20.20
2022-10-18T14:29:05.573Z,20.06
2022-10-18T14:31:33.719Z,20.17
2022-10-18T14:34:00.874Z,20.18
2022-10-18T14:36:34.794Z,20.12
2022-10-18T14:39:05.235Z,20.06
2022-10-18T14:41:38.819Z,19.95
2022-10-18T14:44:14.184Z,19.67
2022-10-18T14:46:45.007Z,19.73
2022-10-18T14:49:12.821Z,19.66
2022-10-18T14:51:42.443Z,19.62
2022-10-18T14:54:18.756Z,19.67
2022-10-18T14:56:45.751Z,19.69
2022-10-18T14:59:22.192Z,19.56
2022-10-18T15:02:12.782Z,19.52
2022-10-18T15:04:39.479Z,19.58
2022-10-18T15:07:13.262Z,19.46
2022-10-18T15:09:40.428Z,19.46
2022-10-18T15:12:07.408Z,19.47
2022-10-18T15:14:34.612Z,19.49
2022-10-18T15:17:12.732Z,19.50
2022-10-18T15:19:39.481Z,19.37
2022-10-18T15:25:21.283Z,18.96
2022-10-18T15:27:54.035Z,18.91
2022-10-18T15:30:24.286Z,18.72
2022-10-18T15:32:55.532Z,18.70
2022-10-18T15:35:26.284Z,18.66
2022-10-18T15:37:54.975Z,18.50
2022-10-18T15:40:21.240Z,18.47
2022-10-18T15:42:51.207Z,18.52
2022-10-18T15:45:24.009Z,18.39
2022-10-18T15:48:01.861Z,18.31
2022-10-18T15:50:47.181Z,18.24
2022-10-18T15:53:22.794Z,18.11
2022-10-18T15:56:01.898Z,18.08
2022-10-18T15:58:44.648Z,18.01
2022-10-18T16:01:38.645Z,17.92
2022-10-18T16:04:09.944Z,17.68
2022-10-18T16:06:38.474Z,17.53
2022-10-18T16:09:05.693Z,17.30
2022-10-18T16:11:32.596Z,17.15
2022-10-18T16:14:00.522Z,17.00
2022-10-18T16:16:30.222Z,16.89
2022-10-18T16:18:57.553Z,16.76
2022-10-18T16:21:30.943Z,16.59
2022-10-18T16:23:58.684Z,16.43
2022-10-18T16:26:25.998Z,16.33
2022-10-18T16:28:53.608Z,16.18
2022-10-18T16:31:25.453Z,16.00
2022-10-18T16:33:54.752Z,15.91
2022-10-18T16:36:26.499Z,15.81
2022-10-18T16:38:54.817Z,15.71
2022-10-18T16:41:21.712Z,15.66
2022-10-18T16:43:50.025Z,15.61
2022-10-18T16:46:19.191Z,15.69
2022-10-18T16:48:46.526Z,15.83
2022-10-18T16:51:13.536Z,15.84
2022-10-18T16:53:39.998Z,15.87
2022-10-18T16:56:12.836Z,15.84
2022-10-18T16:58:39.199Z,15.85
2022-10-18T17:01:08.116Z,15.80
2022-10-18T17:03:35.452Z,15.72
2022-10-18T17:06:01.822Z,15.48
2022-10-18T17:08:28.506Z,15.31
2022-10-18T17:10:58.151Z,15.09
2022-10-18T17:13:26.182Z,14.93
2022-10-18T17:15:53.021Z,14.96
2022-10-18T17:18:22.635Z,14.89
2022-10-18T17:20:49.475Z,14.69
2022-10-18T17:23:16.119Z,14.51
2022-10-18T17:25:57.894Z,14.36
2022-10-18T17:28:33.128Z,14.24
2022-10-18T17:30:59.870Z,14.17
2022-10-18T17:33:26.253Z,14.03
2022-10-18T17:35:52.578Z,13.97
2022-10-18T17:38:19.335Z,13.89
2022-10-18T17:40:45.657Z,13.84
2022-10-18T17:43:13.511Z,13.76
2022-10-18T17:45:50.849Z,13.69
2022-10-18T17:48:17.658Z,13.65
2022-10-18T17:50:43.966Z,13.66
2022-10-18T17:53:12.231Z,13.65
2022-10-18T17:55:39.518Z,13.62
2022-10-18T17:58:05.864Z,13.56
2022-10-18T18:00:32.800Z,13.52
2022-10-18T18:03:00.266Z,13.46
2022-10-18T18:05:31.395Z,13.41
2022-10-18T18:08:02.731Z,13.33
2022-10-18T18:10:33.296Z,13.25
2022-10-18T18:13:00.193Z,13.16
2022-10-18T18:15:26.540Z,13.10
2022-10-18T18:17:57.129Z,13.05
2022-10-18T18:20:24.684Z,13.02
2022-10-18T18:22:52.134Z,13.02
2022-10-18T18:25:18.887Z,13.06
2022-10-18T18:27:45.206Z,13.02
2022-10-18T18:30:12.270Z,12.98
2022-10-18T18:32:39.098Z,12.95
2022-10-18T18:35:05.868Z,12.93
2022-10-18T18:37:32.340Z,12.89
2022-10-18T18:39:58.995Z,12.77
2022-10-18T18:42:25.380Z,12.69
2022-10-18T18:44:52.099Z,12.60
2022-10-18T18:47:21.972Z,12.55
2022-10-18T18:49:49.283Z,12.52
2022-10-18T18:52:17.036Z,12.45
2022-10-18T18:54:43.360Z,12.47
2022-10-18T18:57:10.148Z,12.34
2022-10-18T18:59:36.502Z,12.24
2022-10-18T19:02:02.842Z,12.20
2022-10-18T19:04:29.969Z,12.23
2022-10-18T19:06:56.338Z,12.26
2022-10-18T19:09:22.966Z,12.32
2022-10-18T19:11:52.895Z,12.39
2022-10-18T19:14:20.184Z,12.50
2022-10-18T19:16:48.398Z,12.52
2022-10-18T19:19:18.506Z,12.54
2022-10-18T19:21:56.533Z,12.49
2022-10-18T19:24:24.474Z,12.47
2022-10-18T19:27:02.613Z,12.31
2022-10-18T19:29:34.913Z,12.29
2022-10-18T19:32:03.618Z,12.03
2022-10-18T19:34:31.178Z,12.00
2022-10-18T19:36:57.782Z,12.08
2022-10-18T19:39:26.476Z,12.18
2022-10-18T19:41:58.269Z,12.22
2022-10-18T19:44:27.346Z,12.37
2022-10-18T19:46:55.139Z,12.46
2022-10-18T19:49:21.839Z,12.45
2022-10-18T19:51:49.368Z,12.45
2022-10-18T19:54:16.286Z,12.34
2022-10-18T19:56:43.355Z,12.24
2022-10-18T19:59:11.584Z,12.10
2022-10-18T20:01:38.531Z,12.20
2022-10-18T20:04:05.347Z,12.26
2022-10-18T20:06:32.370Z,12.29
2022-10-18T20:08:58.963Z,12.33
2022-10-18T20:11:28.002Z,12.34
2022-10-18T20:13:55.791Z,12.31
2022-10-18T20:16:28.123Z,12.27
2022-10-18T20:19:00.104Z,12.34
2022-10-18T20:21:28.176Z,12.48
2022-10-18T20:23:54.984Z,12.47
2022-10-18T20:26:22.751Z,12.48
2022-10-18T20:28:57.791Z,12.50
2022-10-18T20:31:27.706Z,12.58
2022-10-18T20:33:56.275Z,12.64
2022-10-18T20:36:22.650Z,12.70
2022-10-18T20:38:49.809Z,12.62
2022-10-18T20:41:19.848Z,12.46
2022-10-18T20:44:00.099Z,12.32
2022-10-18T20:46:29.979Z,12.29
2022-10-18T20:49:02.711Z,12.14
2022-10-18T20:51:29.142Z,11.95
2022-10-18T20:53:56.639Z,11.85
2022-10-18T20:56:26.279Z,11.80
2022-10-18T20:58:55.386Z,11.83
2022-10-18T21:01:27.218Z,11.94
2022-10-18T21:03:55.215Z,12.07
2022-10-18T21:06:26.575Z,12.23
2022-10-18T21:09:01.176Z,12.15
2022-10-18T21:11:29.755Z,12.14
2022-10-18T21:13:59.528Z,12.21
2022-10-18T21:16:27.021Z,12.24
2022-10-18T21:18:53.607Z,12.21
2022-10-18T21:21:25.418Z,12.18
2022-10-18T21:23:52.696Z,12.23
2022-10-18T21:26:21.237Z,12.33
2022-10-18T21:28:50.614Z,12.36
2022-10-18T21:31:19.634Z,12.50
2022-10-18T21:33:47.250Z,12.62
2022-10-18T21:36:14.674Z,12.71
2022-10-18T21:38:45.585Z,12.77
2022-10-18T21:41:14.912Z,12.80
2022-10-18T21:43:47.045Z,12.81
2022-10-18T21:46:15.033Z,12.89
2022-10-18T21:48:46.844Z,12.97
2022-10-18T21:51:16.174Z,13.13
2022-10-18T21:53:46.403Z,13.07
2022-10-18T21:56:15.549Z,13.06
2022-10-18T21:58:43.172Z,13.10
2022-10-18T22:01:18.146Z,13.13
2022-10-18T22:03:47.420Z,13.07
2022-10-18T22:06:15.161Z,13.03
2022-10-18T22:08:53.251Z,13.02
2022-10-18T22:11:22.929Z,12.79
2022-10-18T22:13:49.491Z,12.72
2022-10-18T22:16:16.526Z,12.75
2022-10-18T22:18:44.435Z,12.81
2022-10-18T22:21:13.322Z,12.78
2022-10-18T22:23:42.935Z,12.87
2022-10-18T22:26:12.329Z,12.77
2022-10-18T22:28:40.523Z,12.79
2022-10-18T22:31:14.196Z,12.84
2022-10-18T22:33:40.508Z,12.84
2022-10-18T22:36:06.924Z,12.79
2022-10-18T22:38:35.388Z,12.82
2022-10-18T22:41:10.399Z,12.92
2022-10-18T22:43:38.107Z,12.84
2022-10-18T22:46:07.310Z,12.77
2022-10-18T22:48:34.494Z,12.57
2022-10-18T22:51:02.200Z,12.44
2022-10-18T22:53:29.118Z,12.38
2022-10-18T22:55:55.680Z,12.37
2022-10-18T22:58:22.920Z,12.29
2022-10-18T23:00:49.630Z,12.23
2022-10-18T23:03:17.070Z,12.19
2022-10-18T23:05:46.216Z,12.11
2022-10-18T23:08:14.130Z,12.14
2022-10-18T23:10:42.302Z,12.14
2022-10-18T23:13:09.422Z,12.13
2022-10-18T23:15:36.262Z,12.18
2022-10-18T23:18:02.616Z,12.15
2022-10-18T23:20:29.290Z,12.09
2022-10-18T23:22:55.669Z,12.06
2022-10-18T23:25:22.193Z,11.97
2022-10-18T23:27:49.104Z,11.89
2022-10-18T23:30:16.595Z,11.82
2022-10-18T23:32:43.239Z,11.72
2022-10-18T23:35:10.220Z,11.64
2022-10-18T23:37:36.828Z,11.59
2022-10-18T23:40:03.762Z,11.43
2022-10-18T23:42:30.430Z,11.40
2022-10-18T23:44:56.736Z,11.33
2022-10-18T23:47:23.455Z,11.17
2022-10-18T23:49:49.826Z,11.08
2022-10-18T23:52:16.188Z,11.00
2022-10-18T23:57:14.302Z,10.82
2022-10-18T23:59:40.985Z,10.77
